createdAt,value
2022-11-05T00:00:10.182Z,10.06
2022-11-05T00:02:56.329Z,10.13
2022-11-05T00:05:41.801Z,10.08
2022-11-05T00:08:27.310Z,9.93
2022-11-05T00:10:54.628Z,9.94
2022-11-05T00:13:40.200Z,9.93
2022-11-05T00:16:42.375Z,9.90
2022-11-05T00:19:10.234Z,9.83
2022-11-05T00:21:57.171Z,9.85
2022-11-05T00:24:43.198Z,9.83
2022-11-05T00:27:10.231Z,9.80
2022-11-05T00:29:37.127Z,9.77
2022-11-05T00:32:04.156Z,9.60
2022-11-05T00:34:30.982Z,9.68
2022-11-05T00:36:57.800Z,9.65
2022-11-05T00:39:25.056Z,9.58
2022-11-05T00:42:11.758Z,9.53
2022-11-05T00:44:57.037Z,9.38
2022-11-05T00:47:42.575Z,9.41
2022-11-05T00:50:10.875Z,9.36
2022-11-05T00:52:56.829Z,9.33
2022-11-05T00:55:28.571Z,9.28
2022-11-05T00:57:56.341Z,9.23
2022-11-05T01:00:25.020Z,9.09
2022-11-05T01:02:52.013Z,9.03
2022-11-05T01:05:19.640Z,9.07
2022-11-05T01:07:46.505Z,9.06
2022-11-05T01:10:13.566Z,8.87
2022-11-05T01:12:40.436Z,8.86
2022-11-05T01:15:07.898Z,8.86
2022-11-05T01:17:34.729Z,8.91
2022-11-05T01:20:02.165Z,8.86
2022-11-05T01:22:29.080Z,8.85
2022-11-05T01:24:55.812Z,8.82
2022-11-05T01:27:22.789Z,8.76
2022-11-05T01:29:50.114Z,8.79
2022-11-05T01:32:16.950Z,8.82
2022-11-05T01:34:43.686Z,8.80
2022-11-05T01:37:10.661Z,8.77
2022-11-05T01:39:37.627Z,8.73
2022-11-05T01:42:13.774Z,8.61
2022-11-05T01:44:55.576Z,8.71
2022-11-05T01:47:38.892Z,8.62
2022-11-05T01:50:17.563Z,8.63
2022-11-05T01:52:44.551Z,8.58
2022-11-05T01:55:13.573Z,8.52
2022-11-05T01:57:40.978Z,8.53
2022-11-05T02:00:08.584Z,8.48
2022-11-05T02:02:35.555Z,8.47
2022-11-05T02:05:06.678Z,8.35
2022-11-05T02:07:34.049Z,8.45
2022-11-05T02:10:06.035Z,8.39
2022-11-05T02:12:34.409Z,8.47
2022-11-05T02:15:01.231Z,8.45
2022-11-05T02:17:27.966Z,8.48
2022-11-05T02:20:12.727Z,8.46
2022-11-05T02:22:48.901Z,8.52
2022-11-05T02:25:42.888Z,8.52
2022-11-05T02:28:25.147Z,8.52
2022-11-05T02:31:08.564Z,8.51
2022-11-05T02:33:59.252Z,8.52
2022-11-05T02:36:40.017Z,8.50
2022-11-05T02:39:22.124Z,8.50
2022-11-05T02:42:02.066Z,8.48
2022-11-05T02:45:09.924Z,8.44
2022-11-05T02:47:47.725Z,8.44
2022-11-05T02:50:24.154Z,8.44
2022-11-05T02:53:02.968Z,8.41
2022-11-05T02:55:47.009Z,8.45
2022-11-05T02:58:13.818Z,8.34
2022-11-05T03:00:54.267Z,8.36
2022-11-05T03:03:23.919Z,8.45
2022-11-05T03:06:01.338Z,8.45
2022-11-05T03:08:43.312Z,8.39
2022-11-05T03:11:16.763Z,8.37
2022-11-05T03:13:46.365Z,8.35
2022-11-05T03:16:20.097Z,8.34
2022-11-05T03:18:58.676Z,8.33
2022-11-05T03:21:51.383Z,8.32
2022-11-05T03:24:20.634Z,8.18
2022-11-05T03:26:47.463Z,8.31
2022-11-05T03:29:33.132Z,8.31
2022-11-05T03:32:03.239Z,8.28
2022-11-05T03:34:36.666Z,8.31
2022-11-05T03:37:05.355Z,8.32
2022-11-05T03:39:38.272Z,8.28
2022-11-05T03:42:08.160Z,8.18
2022-11-05T03:44:38.797Z,8.23
2022-11-05T03:47:18.037Z,8.12
2022-11-05T03:50:14.302Z,8.27
2022-11-05T03:52:47.756Z,8.23
2022-11-05T03:55:15.244Z,8.22
2022-11-05T03:57:47.246Z,8.24
2022-11-05T04:00:14.446Z,8.24
2022-11-05T04:02:41.847Z,8.12
2022-11-05T04:05:08.786Z,8.21
2022-11-05T04:07:54.231Z,8.21
2022-11-05T04:10:46.966Z,8.02
2022-11-05T04:13:25.949Z,8.24
2022-11-05T04:16:13.037Z,8.27
2022-11-05T04:18:40.446Z,8.26
2022-11-05T04:21:27.910Z,8.28
2022-11-05T04:24:10.394Z,8.29
2022-11-05T04:26:44.595Z,8.28
2022-11-05T04:29:30.374Z,8.25
2022-11-05T04:31:57.222Z,8.28
2022-11-05T04:34:24.188Z,8.20
2022-11-05T04:36:53.204Z,8.25
2022-11-05T04:39:20.807Z,8.19
2022-11-05T04:41:48.768Z,8.16
2022-11-05T04:44:16.874Z,8.22
2022-11-05T04:46:43.814Z,8.19
2022-11-05T04:49:10.642Z,8.19
2022-11-05T04:51:37.473Z,8.20
2022-11-05T04:54:04.320Z,8.09
2022-11-05T04:56:31.332Z,8.13
2022-11-05T04:58:58.105Z,8.16
2022-11-05T05:01:25.651Z,8.15
2022-11-05T05:03:54.091Z,8.14
2022-11-05T05:06:21.947Z,7.99
2022-11-05T05:08:50.586Z,8.12
2022-11-05T05:11:20.461Z,8.12
2022-11-05T05:13:47.721Z,8.14
2022-11-05T05:16:23.776Z,8.06
2022-11-05T05:18:51.473Z,8.13
2022-11-05T05:21:38.625Z,8.06
2022-11-05T05:24:13.578Z,8.16
2022-11-05T05:26:43.300Z,8.18
2022-11-05T05:29:10.923Z,8.09
2022-11-05T05:31:38.228Z,8.18
2022-11-05T05:34:06.556Z,8.20
2022-11-05T05:36:34.052Z,8.20
2022-11-05T05:39:00.875Z,8.06
2022-11-05T05:41:27.703Z,8.22
2022-11-05T05:43:54.497Z,8.11
2022-11-05T05:46:21.294Z,8.20
2022-11-05T05:48:50.168Z,8.16
2022-11-05T05:51:17.771Z,8.15
2022-11-05T05:53:44.939Z,8.11
2022-11-05T05:56:14.842Z,8.06
2022-11-05T05:58:41.676Z,8.03
2022-11-05T06:01:17.300Z,8.10
2022-11-05T06:03:45.630Z,8.11
2022-11-05T06:06:13.465Z,8.05
2022-11-05T06:08:41.212Z,8.12
2022-11-05T06:11:09.082Z,8.11
2022-11-05T06:13:36.347Z,8.09
2022-11-05T06:16:05.849Z,8.11
2022-11-05T06:18:33.558Z,8.13
2022-11-05T06:21:09.128Z,8.14
2022-11-05T06:23:38.497Z,8.14
2022-11-05T06:26:14.169Z,8.14
2022-11-05T06:28:42.215Z,8.16
2022-11-05T06:31:10.501Z,8.19
2022-11-05T06:33:37.333Z,8.20
2022-11-05T06:36:06.224Z,8.24
2022-11-05T06:38:35.082Z,8.23
2022-11-05T06:41:07.153Z,8.15
2022-11-05T06:43:35.801Z,8.29
2022-11-05T06:46:03.180Z,8.24
2022-11-05T06:48:30.248Z,8.33
2022-11-05T06:50:57.155Z,8.25
2022-11-05T06:53:24.205Z,8.30
2022-11-05T06:55:50.977Z,8.41
2022-11-05T06:58:17.854Z,8.39
2022-11-05T07:00:45.158Z,8.44
2022-11-05T07:03:13.437Z,8.38
2022-11-05T07:05:46.650Z,8.53
2022-11-05T07:08:13.759Z,8.57
2022-11-05T07:10:40.524Z,8.59
2022-11-05T07:13:08.709Z,8.66
2022-11-05T07:15:36.748Z,8.71
2022-11-05T07:18:04.647Z,8.76
2022-11-05T07:20:34.196Z,8.78
2022-11-05T07:23:02.588Z,8.80
2022-11-05T07:25:31.370Z,8.82
2022-11-05T07:27:58.746Z,8.96
2022-11-05T07:30:26.399Z,9.11
2022-11-05T07:32:53.311Z,9.18
2022-11-05T07:35:20.163Z,9.18
2022-11-05T07:37:49.165Z,9.30
2022-11-05T07:40:21.069Z,9.26
2022-11-05T07:42:53.675Z,9.25
2022-11-05T07:45:20.551Z,9.19
2022-11-05T07:47:49.026Z,9.10
2022-11-05T07:50:18.075Z,9.24
2022-11-05T07:52:45.058Z,9.28
2022-11-05T07:55:13.383Z,9.15
2022-11-05T07:57:51.155Z,9.26
2022-11-05T08:00:22.082Z,9.30
2022-11-05T08:03:09.723Z,9.22
2022-11-05T08:05:39.494Z,9.26
2022-11-05T08:08:08.342Z,9.31
2022-11-05T08:10:36.203Z,9.36
2022-11-05T08:13:03.381Z,9.34
2022-11-05T08:15:30.654Z,9.39
2022-11-05T08:18:08.137Z,9.30
2022-11-05T08:20:35.935Z,9.48
2022-11-05T08:23:02.948Z,9.48
2022-11-05T08:25:29.875Z,9.54
2022-11-05T08:28:02.116Z,9.58
2022-11-05T08:30:29.853Z,9.59
2022-11-05T08:33:06.074Z,9.68
2022-11-05T08:35:34.754Z,9.76
2022-11-05T08:38:03.912Z,9.78
2022-11-05T08:40:32.446Z,9.81
2022-11-05T08:43:00.716Z,9.76
2022-11-05T08:45:27.950Z,9.93
2022-11-05T08:48:03.288Z,9.87
2022-11-05T08:50:30.674Z,10.05
2022-11-05T08:52:57.657Z,10.14
2022-11-05T08:55:24.760Z,10.18
2022-11-05T08:57:56.561Z,10.26
2022-11-05T09:00:23.981Z,10.31
2022-11-05T09:02:51.087Z,10.37
2022-11-05T09:05:17.939Z,10.40
2022-11-05T09:07:46.664Z,10.46
2022-11-05T09:10:13.501Z,10.32
2022-11-05T09:12:40.611Z,10.52
2022-11-05T09:15:07.860Z,10.50
2022-11-05T09:17:34.718Z,10.60
2022-11-05T09:20:03.595Z,10.50
2022-11-05T09:22:30.929Z,10.56
2022-11-05T09:24:57.725Z,10.74
2022-11-05T09:27:24.517Z,10.66
2022-11-05T09:29:51.734Z,10.70
2022-11-05T09:32:19.412Z,10.70
2022-11-05T09:34:48.555Z,10.76
2022-11-05T09:37:15.797Z,10.83
2022-11-05T09:39:42.593Z,10.93
2022-11-05T09:42:12.613Z,10.92
2022-11-05T09:45:00.746Z,10.97
2022-11-05T09:47:42.624Z,11.00
2022-11-05T09:50:17.452Z,10.98
2022-11-05T09:52:44.835Z,10.96
2022-11-05T09:55:21.963Z,10.98
2022-11-05T09:57:57.426Z,10.94
2022-11-05T10:00:24.554Z,10.94
2022-11-05T10:02:59.172Z,11.02
2022-11-05T10:05:27.518Z,11.02
2022-11-05T10:08:17.004Z,11.06
2022-11-05T10:10:49.125Z,11.17
2022-11-05T10:13:22.222Z,11.22
2022-11-05T10:16:02.514Z,11.24
2022-11-05T10:18:39.650Z,11.29
2022-11-05T10:21:17.023Z,11.42
2022-11-05T10:23:45.450Z,11.38
2022-11-05T10:26:17.293Z,11.44
2022-11-05T10:28:47.633Z,11.63
2022-11-05T10:31:21.214Z,11.90
2022-11-05T10:33:51.985Z,11.99
2022-11-05T10:36:32.141Z,12.22
2022-11-05T10:39:06.709Z,12.45
2022-11-05T10:41:39.498Z,12.71
2022-11-05T10:44:19.091Z,13.22
2022-11-05T10:47:06.883Z,13.32
2022-11-05T10:49:59.861Z,13.01
2022-11-05T10:52:39.505Z,13.12
2022-11-05T10:55:21.676Z,13.17
2022-11-05T10:57:51.494Z,12.84
2022-11-05T11:00:23.686Z,13.17
2022-11-05T11:02:54.208Z,13.37
2022-11-05T11:05:26.945Z,13.31
2022-11-05T11:08:21.795Z,13.56
2022-11-05T11:10:58.191Z,13.38
2022-11-05T11:13:28.353Z,13.45
2022-11-05T11:16:12.944Z,13.73
2022-11-05T11:18:42.619Z,13.60
2022-11-05T11:21:20.242Z,13.78
2022-11-05T11:23:58.827Z,14.02
2022-11-05T11:26:28.873Z,14.17
2022-11-05T11:29:12.515Z,13.73
2022-11-05T11:31:40.138Z,13.97
2022-11-05T11:34:18.707Z,14.05
2022-11-05T11:36:48.163Z,13.98
2022-11-05T11:39:19.725Z,14.03
2022-11-05T11:41:52.340Z,14.25
2022-11-05T11:44:27.310Z,14.48
2022-11-05T11:47:05.079Z,14.28
2022-11-05T11:49:51.255Z,14.75
2022-11-05T11:52:30.488Z,15.42
2022-11-05T11:55:18.518Z,15.58
2022-11-05T11:57:49.152Z,15.54
2022-11-05T12:00:18.238Z,15.89
2022-11-05T12:03:06.393Z,15.61
2022-11-05T12:05:42.475Z,15.84
2022-11-05T12:08:59.373Z,15.22
2022-11-05T12:11:35.008Z,16.47
2022-11-05T12:14:10.195Z,16.03
2022-11-05T12:17:11.964Z,15.25
2022-11-05T12:20:02.101Z,14.88
2022-11-05T12:23:15.426Z,14.96
2022-11-05T12:25:59.687Z,14.22
2022-11-05T12:28:29.488Z,14.08
2022-11-05T12:31:16.293Z,14.01
2022-11-05T12:34:00.560Z,14.32
2022-11-05T12:36:59.383Z,14.11
2022-11-05T12:39:52.962Z,14.11
2022-11-05T12:42:37.716Z,13.81
2022-11-05T12:45:33.136Z,13.72
2022-11-05T12:48:16.846Z,13.35
2022-11-05T12:50:49.847Z,13.20
2022-11-05T12:53:41.106Z,13.26
2022-11-05T12:56:18.940Z,13.15
2022-11-05T12:59:00.431Z,13.12
2022-11-05T13:01:37.221Z,13.10
2022-11-05T13:04:18.120Z,13.13
2022-11-05T13:06:49.944Z,13.04
2022-11-05T13:09:32.434Z,12.99
2022-11-05T13:12:07.491Z,12.94
2022-11-05T13:14:57.617Z,12.71
2022-11-05T13:17:32.737Z,12.77
2022-11-05T13:20:17.161Z,12.88
2022-11-05T13:22:48.088Z,12.89
2022-11-05T13:25:28.270Z,12.90
2022-11-05T13:28:23.872Z,12.87
2022-11-05T13:31:01.615Z,12.92
2022-11-05T13:33:40.666Z,12.83
2022-11-05T13:36:32.745Z,12.84
2022-11-05T13:39:13.272Z,12.76
2022-11-05T13:42:17.868Z,12.70
2022-11-05T13:45:03.106Z,12.61
2022-11-05T13:47:52.337Z,12.53
2022-11-05T13:50:25.449Z,12.55
2022-11-05T13:53:11.349Z,12.44
2022-11-05T13:55:51.011Z,12.33
2022-11-05T13:58:52.806Z,12.24
2022-11-05T14:01:39.229Z,12.24
2022-11-05T14:04:14.175Z,12.20
2022-11-05T14:06:42.235Z,12.15
2022-11-05T14:09:17.847Z,12.15
2022-11-05T14:11:52.461Z,12.06
2022-11-05T14:14:25.668Z,12.07
2022-11-05T14:17:14.261Z,11.94
2022-11-05T14:20:04.514Z,12.01
2022-11-05T14:22:32.181Z,11.97
2022-11-05T14:25:22.732Z,11.94
2022-11-05T14:27:52.590Z,11.88
2022-11-05T14:30:47.535Z,11.88
2022-11-05T14:33:31.456Z,11.75
2022-11-05T14:36:20.581Z,11.84
2022-11-05T14:38:53.761Z,11.81
2022-11-05T14:41:21.931Z,11.80
2022-11-05T14:44:07.483Z,11.76
2022-11-05T14:46:48.012Z,11.74
2022-11-05T14:49:22.753Z,11.52
2022-11-05T14:51:52.912Z,11.72
2022-11-05T14:54:31.002Z,11.72
2022-11-05T14:57:02.200Z,11.69
2022-11-05T14:59:31.659Z,11.68
2022-11-05T15:02:12.133Z,11.66
2022-11-05T15:04:43.608Z,11.63
2022-11-05T15:07:11.587Z,11.65
2022-11-05T15:09:54.682Z,11.63
2022-11-05T15:12:50.904Z,11.61
2022-11-05T15:15:29.150Z,11.56
2022-11-05T15:18:23.868Z,11.54
2022-11-05T15:20:57.307Z,11.53
2022-11-05T15:23:30.514Z,11.50
2022-11-05T15:26:26.201Z,11.50
2022-11-05T15:28:55.265Z,11.48
2022-11-05T15:31:37.019Z,11.45
2022-11-05T15:34:18.947Z,11.39
2022-11-05T15:36:57.668Z,11.33
2022-11-05T15:39:33.978Z,11.31
2022-11-05T15:42:05.210Z,11.25
2022-11-05T15:44:40.156Z,11.19
2022-11-05T15:47:21.166Z,11.22
2022-11-05T15:49:53.306Z,11.16
2022-11-05T15:52:24.345Z,11.09
2022-11-05T15:55:10.753Z,11.08
2022-11-05T15:57:47.845Z,11.03
2022-11-05T16:00:26.070Z,11.02
2022-11-05T16:03:04.963Z,11.02
2022-11-05T16:05:43.473Z,10.99
2022-11-05T16:08:17.455Z,10.94
2022-11-05T16:10:49.948Z,10.94
2022-11-05T16:13:30.452Z,10.84
2022-11-05T16:16:02.052Z,10.88
2022-11-05T16:18:38.898Z,10.85
2022-11-05T16:21:09.885Z,10.88
2022-11-05T16:23:49.959Z,10.83
2022-11-05T16:26:55.759Z,10.80
2022-11-05T16:29:23.592Z,10.77
2022-11-05T16:31:54.048Z,10.66
2022-11-05T16:34:40.532Z,10.63
2022-11-05T16:37:13.790Z,10.62
2022-11-05T16:39:41.948Z,10.56
2022-11-05T16:42:26.515Z,10.58
2022-11-05T16:44:55.412Z,10.56
2022-11-05T16:47:22.977Z,10.50
2022-11-05T16:49:51.332Z,10.39
2022-11-05T16:52:19.366Z,10.49
2022-11-05T16:54:47.000Z,10.37
2022-11-05T16:57:27.534Z,10.41
2022-11-05T17:00:00.476Z,10.24
2022-11-05T17:02:31.701Z,10.36
2022-11-05T17:04:59.808Z,10.32
2022-11-05T17:07:28.783Z,10.27
2022-11-05T17:09:56.323Z,10.26
2022-11-05T17:12:24.378Z,10.15
2022-11-05T17:14:51.756Z,10.19
2022-11-05T17:17:19.081Z,10.18
2022-11-05T17:19:47.479Z,10.11
2022-11-05T17:22:15.356Z,10.08
2022-11-05T17:24:43.754Z,9.98
2022-11-05T17:27:15.167Z,9.99
2022-11-05T17:29:43.478Z,10.02
2022-11-05T17:32:11.233Z,9.86
2022-11-05T17:34:40.827Z,9.89
2022-11-05T17:37:08.321Z,9.98
2022-11-05T17:39:36.469Z,9.93
2022-11-05T17:42:07.436Z,9.90
2022-11-05T17:44:35.142Z,9.92
2022-11-05T17:47:03.022Z,9.87
2022-11-05T17:49:31.802Z,9.85
2022-11-05T17:51:59.775Z,9.81
2022-11-05T17:54:27.407Z,9.81
2022-11-05T17:56:55.491Z,9.78
2022-11-05T17:59:24.484Z,9.81
2022-11-05T18:01:52.817Z,9.79
2022-11-05T18:04:20.628Z,9.76
2022-11-05T18:06:52.397Z,9.74
2022-11-05T18:09:20.867Z,9.75
2022-11-05T18:11:48.705Z,9.72
2022-11-05T18:14:22.777Z,9.71
2022-11-05T18:16:55.491Z,9.69
2022-11-05T18:19:24.599Z,9.68
2022-11-05T18:21:53.800Z,9.60
2022-11-05T18:24:22.488Z,9.68
2022-11-05T18:26:50.723Z,9.71
2022-11-05T18:29:18.460Z,9.66
2022-11-05T18:31:47.263Z,9.64
2022-11-05T18:34:16.572Z,9.57
2022-11-05T18:36:53.479Z,9.61
2022-11-05T18:39:24.534Z,9.51
2022-11-05T18:41:52.102Z,9.58
2022-11-05T18:44:23.165Z,9.58
2022-11-05T18:46:58.016Z,9.58
2022-11-05T18:49:28.607Z,9.58
2022-11-05T18:51:57.913Z,9.55
2022-11-05T18:54:26.158Z,9.57
2022-11-05T18:56:53.996Z,9.54
2022-11-05T18:59:36.875Z,9.54
2022-11-05T19:02:08.241Z,9.47
2022-11-05T19:04:43.835Z,9.45
2022-11-05T19:07:24.049Z,9.47
2022-11-05T19:09:53.177Z,9.50
2022-11-05T19:12:22.798Z,9.48
2022-11-05T19:14:50.779Z,9.47
2022-11-05T19:17:18.597Z,9.48
2022-11-05T19:19:47.482Z,9.46
2022-11-05T19:22:15.378Z,9.47
2022-11-05T19:24:43.697Z,9.48
2022-11-05T19:27:13.031Z,9.47
2022-11-05T19:29:41.842Z,9.44
2022-11-05T19:32:09.695Z,9.46
2022-11-05T19:34:37.462Z,9.50
2022-11-05T19:37:08.501Z,9.48
2022-11-05T19:39:36.963Z,9.46
2022-11-05T19:42:06.136Z,9.47
2022-11-05T19:44:34.546Z,9.49
2022-11-05T19:47:03.481Z,9.47
2022-11-05T19:49:31.781Z,9.37
2022-11-05T19:51:59.557Z,9.51
2022-11-05T19:54:27.090Z,9.52
2022-11-05T19:56:54.666Z,9.48
2022-11-05T19:59:22.130Z,9.52
2022-11-05T20:01:50.284Z,9.52
2022-11-05T20:04:18.443Z,9.51
2022-11-05T20:06:48.084Z,9.48
2022-11-05T20:09:23.477Z,9.53
2022-11-05T20:11:54.867Z,9.48
2022-11-05T20:14:24.900Z,9.51
2022-11-05T20:16:53.694Z,9.47
2022-11-05T20:19:23.183Z,9.51
2022-11-05T20:21:51.638Z,9.51
2022-11-05T20:24:25.340Z,9.53
2022-11-05T20:26:55.867Z,9.50
2022-11-05T20:29:35.283Z,9.43
2022-11-05T20:32:05.713Z,9.49
2022-11-05T20:34:35.801Z,9.50
2022-11-05T20:37:03.547Z,9.50
2022-11-05T20:39:32.679Z,9.51
2022-11-05T20:42:01.147Z,9.48
2022-11-05T20:44:29.391Z,9.50
2022-11-05T20:46:57.290Z,9.47
2022-11-05T20:49:25.789Z,9.40
2022-11-05T20:51:54.296Z,9.49
2022-11-05T20:54:22.403Z,9.49
2022-11-05T20:56:50.418Z,9.49
2022-11-05T20:59:19.360Z,9.48
2022-11-05T21:01:47.670Z,9.48
2022-11-05T21:04:15.338Z,9.51
2022-11-05T21:06:43.611Z,9.49
2022-11-05T21:09:11.525Z,9.47
2022-11-05T21:11:57.973Z,9.49
2022-11-05T21:14:26.221Z,9.47
2022-11-05T21:16:53.826Z,9.48
2022-11-05T21:19:24.337Z,9.48
2022-11-05T21:21:51.761Z,9.47
2022-11-05T21:24:19.513Z,9.47
2022-11-05T21:26:47.299Z,9.48
2022-11-05T21:29:15.096Z,9.48
2022-11-05T21:31:43.000Z,9.49
2022-11-05T21:34:11.673Z,9.45
2022-11-05T21:36:40.724Z,9.48
2022-11-05T21:39:13.198Z,9.49
2022-11-05T21:41:42.822Z,9.41
2022-11-05T21:44:10.614Z,9.43
2022-11-05T21:46:38.097Z,9.48
2022-11-05T21:49:05.161Z,9.48
2022-11-05T21:51:50.896Z,9.48
2022-11-05T21:54:36.744Z,9.48
2022-11-05T21:57:22.474Z,9.48
2022-11-05T21:59:49.912Z,9.48
2022-11-05T22:02:19.576Z,9.36
2022-11-05T22:04:52.541Z,9.49
2022-11-05T22:07:22.987Z,9.48
2022-11-05T22:09:50.131Z,9.50
2022-11-05T22:12:17.144Z,9.49
2022-11-05T22:14:44.125Z,9.48
2022-11-05T22:17:12.701Z,9.46
2022-11-05T22:19:39.724Z,9.43
2022-11-05T22:22:06.864Z,9.48
2022-11-05T22:24:34.600Z,9.49
2022-11-05T22:27:05.465Z,9.45
2022-11-05T22:29:32.476Z,9.45
2022-11-05T22:31:59.354Z,9.48
2022-11-05T22:34:26.345Z,9.43
2022-11-05T22:36:53.724Z,9.45
2022-11-05T22:39:21.123Z,9.47
2022-11-05T22:41:48.190Z,9.46
2022-11-05T22:44:16.737Z,9.47
2022-11-05T22:46:44.078Z,9.40
2022-11-05T22:49:11.309Z,9.44
2022-11-05T22:51:39.324Z,9.40
2022-11-05T22:54:07.513Z,9.47
2022-11-05T22:56:37.420Z,9.46
2022-11-05T22:59:05.611Z,9.45
2022-11-05T23:01:32.980Z,9.46
2022-11-05T23:04:00.269Z,9.45
2022-11-05T23:06:49.184Z,9.44
2022-11-05T23:09:50.030Z,9.47
2022-11-05T23:12:28.953Z,9.44
2022-11-05T23:14:58.473Z,9.44
2022-11-05T23:17:44.721Z,9.39
2022-11-05T23:20:37.168Z,9.43
2022-11-05T23:23:24.658Z,9.44
2022-11-05T23:25:57.629Z,9.44
2022-11-05T23:28:24.733Z,9.46
2022-11-05T23:31:09.853Z,9.45
2022-11-05T23:33:36.978Z,9.46
2022-11-05T23:36:22.505Z,9.43
2022-11-05T23:38:49.278Z,9.43
2022-11-05T23:41:34.557Z,9.42
2022-11-05T23:44:20.040Z,9.43
2022-11-05T23:47:05.178Z,9.42
2022-11-05T23:49:32.194Z,9.41
2022-11-05T23:51:59.232Z,9.40
2022-11-05T23:54:26.365Z,9.41
2022-11-05T23:56:53.212Z,9.40
2022-11-05T23:59:20.122Z,9.41
